Time;durP1;ratioP1;P1;durP2;ratioP2;P2;SDS_P1;SDS_P2;PMS_P1;PMS_P2;Temp;Humidity;BMP_temperature;BMP_pressure;BME280_temperature;BME280_humidity;BME280_pressure;Samples;Min_cycle;Max_cycle;Signal;HPM_P1;HPM_P2
2023/06/16 00:02:06;;;;;;;0.63;0.63;;;15.40;99.90;;;;;;4897037;29;20055;-61
2023/06/16 00:04:33;;;;;;;0.40;0.40;;;15.60;99.90;;;;;;4896914;29;20049;-61
2023/06/16 00:06:59;;;;;;;0.10;0.10;;;15.60;99.90;;;;;;4896895;29;20090;-61
2023/06/16 00:09:26;;;;;;;0.10;0.10;;;15.30;99.90;;;;;;4896864;29;20092;-61
2023/06/16 00:11:52;;;;;;;0.43;0.43;;;15.40;99.90;;;;;;4880458;29;20057;-61
2023/06/16 00:14:18;;;;;;;0.22;0.22;;;15.30;99.90;;;;;;4896974;29;20049;-61
2023/06/16 00:16:44;;;;;;;0.30;0.30;;;15.20;99.90;;;;;;4896887;29;20525;-61
2023/06/16 00:19:10;;;;;;;;;;;15.20;99.90;;;;;;4897422;29;20131;-61
2023/06/16 00:21:41;;;;;;;0.20;0.20;;;15.20;99.90;;;;;;4896270;29;20384;-61
2023/06/16 00:24:08;;;;;;;0.30;0.30;;;15.20;99.90;;;;;;4896737;29;20088;-61
2023/06/16 00:26:34;;;;;;;0.32;0.32;;;15.40;99.90;;;;;;4897294;29;20481;-61
2023/06/16 00:29:01;;;;;;;0.20;0.20;;;15.30;99.90;;;;;;4897066;29;20067;-62
2023/06/16 00:31:27;;;;;;;0.20;0.20;;;15.30;99.90;;;;;;4897109;29;20056;-61
2023/06/16 00:33:53;;;;;;;0.30;0.30;;;15.00;99.90;;;;;;4880234;29;20060;-61
2023/06/16 00:36:19;;;;;;;0.30;0.30;;;15.30;99.90;;;;;;4896744;29;20103;-61
2023/06/16 00:38:45;;;;;;;1.13;0.82;;;15.10;99.90;;;;;;4896665;29;20510;-61
2023/06/16 00:41:11;;;;;;;;;;;15.00;99.90;;;;;;4897210;29;20048;-61
2023/06/16 00:43:36;;;;;;;0.10;0.10;;;15.10;99.90;;;;;;4896658;29;19983;-61
2023/06/16 00:46:02;;;;;;;;;;;15.10;99.90;;;;;;4897086;29;20092;-61
2023/06/16 00:48:28;;;;;;;0.20;0.20;;;15.10;99.90;;;;;;4896526;29;19923;-61
2023/06/16 00:50:55;;;;;;;;;;;15.00;99.90;;;;;;4896871;29;20486;-61
2023/06/16 00:53:21;;;;;;;0.30;0.30;;;17.40;99.90;;;;;;4896484;29;20388;-61
2023/06/16 00:55:47;;;;;;;0.52;0.52;;;14.90;99.90;;;;;;4911109;29;20068;-61
2023/06/16 00:58:15;;;;;;;0.25;0.25;;;14.80;99.90;;;;;;4896384;29;20561;-61
2023/06/16 01:00:42;;;;;;;0.10;0.10;;;15.30;99.90;;;;;;4910682;29;20520;-61
2023/06/16 01:03:13;;;;;;;8.00;0.57;;;15.00;99.90;;;;;;4896437;29;20131;-61
2023/06/16 01:05:39;;;;;;;0.73;0.50;;;14.70;99.90;;;;;;4896396;29;20053;-61
2023/06/16 01:08:38;;;;;;;0.40;0.35;;;15.00;99.90;;;;;;4896397;29;20056;-61
2023/06/16 01:11:12;;;;;;;0.55;0.43;;;14.90;99.90;;;;;;4896406;29;20048;-61
2023/06/16 01:14:01;;;;;;;0.25;0.25;;;15.10;99.90;;;;;;4896533;29;20273;-61
2023/06/16 01:16:33;;;;;;;0.60;0.60;;;14.90;99.90;;;;;;4896528;29;20056;-61
2023/06/16 01:19:08;;;;;;;0.45;0.40;;;15.20;99.90;;;;;;4896440;29;20060;-61
2023/06/16 01:21:44;;;;;;;0.30;0.30;;;15.20;99.90;;;;;;4896426;29;20064;-61
2023/06/16 01:24:13;;;;;;;0.33;0.33;;;14.90;99.90;;;;;;4896173;29;20180;-61
2023/06/16 01:26:44;;;;;;;1.00;1.00;;;14.60;99.90;;;;;;4896068;29;20055;-61
2023/06/16 01:29:12;;;;;;;1.20;0.65;;;14.40;99.90;;;;;;4896310;29;20100;-61
2023/06/16 01:31:40;;;;;;;0.65;0.65;;;14.90;99.90;;;;;;4896221;29;20146;-61
2023/06/16 01:34:07;;;;;;;0.32;0.32;;;14.40;99.90;;;;;;4898222;29;20442;-61
2023/06/16 01:36:36;;;;;;;0.20;0.20;;;14.50;99.90;;;;;;4899856;29;20169;-61
2023/06/16 01:39:02;;;;;;;0.47;0.47;;;14.70;99.90;;;;;;4899703;29;20059;-61
2023/06/16 01:41:29;;;;;;;1.02;0.85;;;14.50;99.90;;;;;;4899891;29;20056;-61
2023/06/16 01:43:56;;;;;;;0.55;0.52;;;14.60;99.90;;;;;;4899824;29;20068;-61
2023/06/16 01:46:22;;;;;;;0.60;0.60;;;14.60;99.90;;;;;;4899748;29;20190;-61
2023/06/16 01:48:48;;;;;;;0.30;0.30;;;15.00;99.90;;;;;;4899458;29;20051;-61
2023/06/16 01:51:14;;;;;;;0.50;0.50;;;14.50;99.90;;;;;;4899675;29;20099;-61
2023/06/16 01:53:41;;;;;;;0.30;0.30;;;14.30;99.90;;;;;;4899477;29;20140;-61
2023/06/16 01:56:10;;;;;;;0.38;0.38;;;14.70;99.90;;;;;;4899679;29;20091;-61
2023/06/16 01:58:36;;;;;;;0.50;0.50;;;14.80;99.90;;;;;;4883020;29;20450;-61
2023/06/16 02:01:06;;;;;;;;;;;14.30;99.90;;;;;;4899950;29;20143;-61
2023/06/16 02:03:46;;;;;;;0.32;0.32;;;14.10;99.90;;;;;;4899489;29;19989;-61
2023/06/16 02:06:24;;;;;;;0.40;0.40;;;14.70;99.90;;;;;;4899380;29;20374;-61
2023/06/16 02:08:53;;;;;;;0.38;0.38;;;14.30;99.90;;;;;;4899467;29;20421;-61
2023/06/16 02:11:19;;;;;;;0.55;0.55;;;14.30;99.90;;;;;;4899451;29;20407;-61
2023/06/16 02:13:45;;;;;;;0.20;0.20;;;14.10;99.90;;;;;;4882446;29;20049;-61
2023/06/16 02:16:12;;;;;;;0.50;0.50;;;14.10;99.90;;;;;;4899142;29;20070;-60
2023/06/16 02:18:38;;;;;;;0.38;0.38;;;14.20;99.90;;;;;;4899145;29;20471;-61
2023/06/16 02:21:04;;;;;;;0.30;0.30;;;14.10;99.90;;;;;;4899335;29;20112;-61
2023/06/16 02:23:30;;;;;;;;;;;14.10;99.90;;;;;;4899911;29;20123;-61
2023/06/16 02:25:55;;;;;;;0.30;0.30;;;14.00;99.90;;;;;;4899303;29;20010;-60
2023/06/16 02:28:21;;;;;;;;;;;14.30;99.90;;;;;;4899342;29;20231;-61
2023/06/16 02:30:47;;;;;;;0.60;0.55;;;14.40;99.90;;;;;;4898939;29;20025;-61
2023/06/16 02:33:14;;;;;;;;;;;14.20;99.90;;;;;;4899155;29;20056;-61
2023/06/16 02:35:40;;;;;;;0.30;0.30;;;13.90;99.90;;;;;;4899005;29;19924;-61
2023/06/16 02:38:07;;;;;;;0.50;0.50;;;14.40;99.90;;;;;;4899044;29;20063;-60
2023/06/16 02:40:33;;;;;;;0.57;0.57;;;14.10;99.90;;;;;;4898932;29;20450;-60
2023/06/16 02:42:59;;;;;;;;;;;14.50;99.90;;;;;;4899124;29;20464;-61
2023/06/16 02:45:24;;;;;;;0.20;0.20;;;14.10;99.90;;;;;;4897730;29;19968;-61
2023/06/16 02:47:50;;;;;;;0.47;0.47;;;14.10;99.90;;;;;;4898532;29;20520;-61
2023/06/16 02:50:16;;;;;;;;;;;14.60;99.90;;;;;;4899027;29;20060;-60
2023/06/16 02:52:42;;;;;;;2.47;0.50;;;14.30;99.90;;;;;;4898459;29;19927;-60
2023/06/16 02:55:13;;;;;;;0.95;0.50;;;14.20;99.90;;;;;;4898585;29;20457;-60
2023/06/16 02:57:38;;;;;;;0.65;0.65;;;14.20;99.90;;;;;;4898461;29;20060;-61
2023/06/16 03:00:09;;;;;;;0.30;0.30;;;14.00;99.90;;;;;;4898310;29;20084;-61
2023/06/16 03:02:35;;;;;;;0.30;0.30;;;14.30;99.90;;;;;;4898339;29;20052;-60
2023/06/16 03:05:04;;;;;;;0.60;0.60;;;14.10;99.90;;;;;;4898522;29;20409;-60
2023/06/16 03:07:34;;;;;;;0.45;0.45;;;14.40;99.90;;;;;;4898355;29;20071;-60
2023/06/16 03:10:07;;;;;;;0.65;0.65;;;14.30;99.90;;;;;;4898210;29;20080;-61
2023/06/16 03:12:32;;;;;;;1.98;1.20;;;13.70;99.90;;;;;;4898253;29;20056;-61
2023/06/16 03:14:58;;;;;;;0.40;0.40;;;14.30;99.90;;;;;;4898027;29;20494;-60
2023/06/16 03:17:24;;;;;;;0.43;0.43;;;14.00;99.90;;;;;;4898284;29;20056;-60
2023/06/16 03:19:50;;;;;;;;;;;13.90;99.90;;;;;;4898584;29;20091;-60
2023/06/16 03:22:16;;;;;;;0.30;0.30;;;13.90;99.90;;;;;;4898151;29;20398;-60
2023/06/16 03:24:46;;;;;;;0.30;0.30;;;14.40;99.90;;;;;;4898033;29;20100;-61
2023/06/16 03:27:12;;;;;;;0.30;0.30;;;14.90;99.90;;;;;;4897916;29;20417;-60
2023/06/16 03:29:38;;;;;;;0.75;0.75;;;15.30;99.90;;;;;;4897563;29;20040;-60
2023/06/16 03:32:04;;;;;;;;;;;14.30;99.90;;;;;;4898392;29;20056;-61
2023/06/16 03:34:30;;;;;;;0.20;0.20;;;14.70;99.90;;;;;;4897763;29;19975;-60
2023/06/16 03:36:56;;;;;;;;;;;14.70;99.90;;;;;;4898213;29;20101;-60
2023/06/16 03:39:21;;;;;;;0.30;0.30;;;15.20;99.90;;;;;;4897694;29;20030;-60
2023/06/16 03:41:47;;;;;;;0.30;0.30;;;14.80;99.90;;;;;;4897675;29;20123;-60
2023/06/16 03:44:13;;;;;;;1.17;0.73;;;14.80;99.90;;;;;;4897490;29;20055;-60
2023/06/16 03:46:38;;;;;;;;;;;15.30;99.90;;;;;;4898082;29;20059;-60
2023/06/16 03:49:04;;;;;;;0.40;0.40;;;14.80;99.90;;;;;;4897385;29;19923;-60
2023/06/16 03:51:30;;;;;;;;;;;15.10;99.90;;;;;;4897972;29;20494;-60
2023/06/16 03:53:57;;;;;;;0.77;0.77;;;14.60;99.90;;;;;;4897452;29;19930;-60
2023/06/16 03:56:23;;;;;;;0.52;0.52;;;14.90;99.90;;;;;;4897146;29;20056;-60
2023/06/16 03:58:49;;;;;;;0.35;0.35;;;15.00;99.90;;;;;;4897260;29;20069;-60
2023/06/16 04:01:16;;;;;;;0.50;0.50;;;14.70;99.90;;;;;;4897437;29;20463;-61
2023/06/16 04:03:41;;;;;;;0.52;0.52;;;15.80;99.90;;;;;;4897302;29;20052;-60
2023/06/16 04:06:07;;;;;;;0.40;0.40;;;14.80;99.90;;;;;;4897334;29;20089;-60
2023/06/16 04:08:32;;;;;;;;;;;15.40;99.90;;;;;;4897608;29;20048;-61
2023/06/16 04:10:58;;;;;;;0.70;0.70;;;14.90;99.90;;;;;;4897252;29;19923;-61
2023/06/16 04:13:24;;;;;;;;;;;15.10;99.90;;;;;;4897486;29;20048;-60
2023/06/16 04:15:50;;;;;;;0.70;0.35;;;15.60;99.90;;;;;;4897463;29;19931;-61
2023/06/16 04:18:15;;;;;;;;;;;15.20;99.90;;;;;;4897815;29;20131;-60
2023/06/16 04:20:41;;;;;;;0.30;0.30;;;14.80;99.90;;;;;;4897164;29;19923;-60
2023/06/16 04:23:09;;;;;;;;;;;15.10;99.90;;;;;;4897422;29;20049;-60
2023/06/16 04:25:35;;;;;;;0.30;0.30;;;15.00;99.90;;;;;;4896905;29;20296;-61
2023/06/16 04:28:02;;;;;;;0.52;0.40;;;15.30;99.90;;;;;;4896801;29;20533;-60
2023/06/16 04:30:30;;;;;;;0.70;0.70;;;15.00;99.90;;;;;;4896955;29;20172;-60
2023/06/16 04:32:59;;;;;;;0.32;0.32;;;15.50;99.90;;;;;;4896966;29;20091;-60
2023/06/16 04:35:34;;;;;;;0.30;0.30;;;15.20;99.90;;;;;;4896890;29;20056;-61
2023/06/16 04:38:00;;;;;;;0.40;0.40;;;15.40;99.90;;;;;;4896730;29;20160;-60
2023/06/16 04:40:27;;;;;;;0.20;0.20;;;15.00;99.90;;;;;;4896628;29;20049;-61
2023/06/16 04:42:53;;;;;;;0.30;0.30;;;15.00;99.90;;;;;;4896766;29;20153;-60
2023/06/16 04:45:19;;;;;;;;;;;15.00;99.90;;;;;;4897198;29;20139;-61
2023/06/16 04:47:45;;;;;;;0.40;0.40;;;15.60;99.90;;;;;;4896748;29;19998;-61
2023/06/16 04:50:11;;;;;;;;;;;15.20;99.90;;;;;;4897096;29;20478;-61
2023/06/16 04:52:37;;;;;;;0.43;0.43;;;15.80;99.90;;;;;;4896533;29;19933;-60
2023/06/16 04:55:04;;;;;;;0.40;0.40;;;15.70;99.90;;;;;;4896417;29;20048;-60
2023/06/16 04:57:34;;;;;;;0.32;0.32;;;15.90;99.90;;;;;;4897774;29;20048;-61
2023/06/16 05:00:01;;;;;;;0.43;0.43;;;15.70;99.90;;;;;;4894954;29;20382;-60
2023/06/16 05:02:27;;;;;;;1.10;1.02;;;16.30;99.90;;;;;;4895959;29;20056;-60
2023/06/16 05:04:53;;;;;;;;;;;15.80;99.90;;;;;;4896341;29;20057;-60
2023/06/16 05:07:19;;;;;;;0.50;0.50;;;16.90;99.90;;;;;;4895691;29;19928;-61
2023/06/16 05:09:45;;;;;;;;;;;16.20;99.90;;;;;;4899198;29;20096;-61
2023/06/16 05:12:11;;;;;;;0.28;0.28;;;16.60;99.90;;;;;;4899258;29;20377;-60
2023/06/16 05:14:36;;;;;;;;;;;16.50;99.90;;;;;;4900280;29;20056;-60
2023/06/16 05:17:02;;;;;;;0.70;0.70;;;16.70;99.90;;;;;;4899473;29;19927;-60
2023/06/16 05:19:28;;;;;;;;;;;16.40;99.90;;;;;;4900022;29;20044;-60
2023/06/16 05:21:54;;;;;;;1.20;1.00;;;17.00;99.90;;;;;;4899490;29;19983;-61
2023/06/16 05:24:20;;;;;;;;;;;16.70;99.90;;;;;;4899759;29;20048;-60
2023/06/16 05:26:45;;;;;;;0.77;0.70;;;17.30;99.90;;;;;;4899177;29;20345;-61
2023/06/16 05:29:11;;;;;;;;;;;16.90;99.90;;;;;;4899817;29;20047;-61
2023/06/16 05:31:37;;;;;;;0.30;0.30;;;16.80;99.90;;;;;;4882633;29;20298;-61
2023/06/16 05:34:02;;;;;;;;;;;17.60;99.90;;;;;;4899762;29;20052;-60
2023/06/16 05:36:34;;;;;;;2.40;2.25;;;17.10;99.90;;;;;;4898933;29;19931;-60
2023/06/16 05:39:01;;;;;;;0.60;0.57;;;17.40;99.90;;;;;;4898855;29;20052;-60
2023/06/16 05:41:27;;;;;;;1.02;1.00;;;17.30;99.90;;;;;;4898793;29;20052;-61
2023/06/16 05:43:57;;;;;;;0.90;0.85;;;17.80;99.90;;;;;;4899131;29;20068;-60
2023/06/16 05:46:22;;;;;;;0.77;0.77;;;17.30;99.90;;;;;;4899078;29;20521;-60
2023/06/16 05:48:48;;;;;;;;;;;17.70;99.90;;;;;;4913663;29;20049;-60
2023/06/16 05:51:14;;;;;;;0.55;0.55;;;17.90;99.90;;;;;;4904458;29;20368;-61
2023/06/16 05:53:40;;;;;;;0.45;0.45;;;17.60;99.90;;;;;;4896136;29;20056;-61
2023/06/16 05:56:06;;;;;;;0.55;0.55;;;17.70;99.90;;;;;;4917941;29;20095;-61
2023/06/16 05:58:36;;;;;;;0.55;0.55;;;18.20;99.90;;;;;;4905800;29;20135;-60
2023/06/16 06:01:06;;;;;;;0.22;0.22;;;18.00;99.90;;;;;;4898872;29;20045;-61
2023/06/16 06:03:32;;;;;;;0.25;0.25;;;18.00;99.90;;;;;;4898923;29;20052;-61
2023/06/16 06:05:58;;;;;;;1.25;1.15;;;18.10;99.90;;;;;;4898824;29;20127;-61
2023/06/16 06:08:27;;;;;;;0.30;0.30;;;17.90;99.90;;;;;;4898886;29;20127;-60
2023/06/16 06:10:55;;;;;;;0.50;0.50;;;17.70;99.90;;;;;;4899178;29;20048;-62
2023/06/16 06:13:21;;;;;;;0.60;0.60;;;18.20;99.90;;;;;;4898541;29;20410;-61
2023/06/16 06:15:47;;;;;;;2.83;0.80;;;18.00;99.90;;;;;;4898637;29;20486;-61
2023/06/16 06:18:13;;;;;;;0.57;0.57;;;18.30;99.90;;;;;;4898558;29;20053;-61
2023/06/16 06:20:39;;;;;;;1.65;0.82;;;18.40;99.90;;;;;;4898507;29;20055;-61
2023/06/16 06:23:05;;;;;;;0.40;0.40;;;18.60;99.90;;;;;;4898122;29;20059;-60
2023/06/16 06:25:31;;;;;;;0.35;0.35;;;18.40;99.90;;;;;;4897175;29;20052;-61
2023/06/16 06:27:57;;;;;;;0.60;0.28;;;18.40;99.90;;;;;;4897162;29;20044;-61
2023/06/16 06:30:24;;;;;;;0.60;0.60;;;18.50;99.90;;;;;;4898306;29;20438;-61
2023/06/16 06:32:50;;;;;;;0.68;0.68;;;18.90;99.90;;;;;;4898870;29;20421;-61
2023/06/16 06:35:16;;;;;;;0.88;0.75;;;18.60;99.90;;;;;;4898741;29;20048;-60
2023/06/16 06:37:42;;;;;;;0.98;0.98;;;18.60;99.90;;;;;;4898977;29;20092;-61
2023/06/16 06:40:08;;;;;;;0.60;0.60;;;18.70;99.90;;;;;;4899102;29;20140;-61
2023/06/16 06:42:34;;;;;;;0.50;0.50;;;19.00;99.90;;;;;;4898924;29;20136;-61
2023/06/16 06:45:01;;;;;;;0.43;0.43;;;18.60;99.90;;;;;;4898751;29;20464;-62
2023/06/16 06:47:26;;;;;;;0.40;0.40;;;18.90;99.90;;;;;;4898738;29;20159;-61
2023/06/16 06:49:53;;;;;;;0.52;0.52;;;19.30;99.90;;;;;;4898215;29;20147;-61
2023/06/16 06:52:19;;;;;;;0.32;0.32;;;19.10;99.90;;;;;;4898787;29;20476;-61
2023/06/16 06:54:45;;;;;;;1.15;0.30;;;19.30;99.90;;;;;;4898645;29;20135;-61
2023/06/16 06:57:12;;;;;;;0.28;0.28;;;19.10;99.90;;;;;;4898398;29;20490;-61
2023/06/16 06:59:40;;;;;;;0.50;0.50;;;18.90;99.90;;;;;;4898495;29;20049;-61
2023/06/16 07:02:06;;;;;;;1.08;0.40;;;19.00;99.90;;;;;;4898297;29;20123;-61
2023/06/16 07:04:33;;;;;;;0.60;0.60;;;19.20;99.90;;;;;;4898288;29;20051;-61
2023/06/16 07:07:00;;;;;;;0.40;0.40;;;19.20;99.90;;;;;;4898494;29;20060;-61
2023/06/16 07:09:25;;;;;;;0.25;0.25;;;19.40;99.90;;;;;;4898299;29;20098;-61
2023/06/16 07:11:51;;;;;;;3.30;1.58;;;19.60;99.90;;;;;;4898332;29;20088;-61
2023/06/16 07:14:17;;;;;;;0.47;0.47;;;19.40;99.90;;;;;;4898107;29;20060;-61
2023/06/16 07:16:42;;;;;;;1.10;1.00;;;19.60;99.90;;;;;;4898081;29;20091;-61
2023/06/16 07:19:08;;;;;;;0.40;0.40;;;19.70;99.90;;;;;;4898059;29;20049;-61
2023/06/16 07:21:34;;;;;;;0.60;0.60;;;19.40;99.90;;;;;;4898459;29;20048;-61
2023/06/16 07:23:59;;;;;;;3.05;1.73;;;19.50;99.90;;;;;;4898291;29;20049;-61
2023/06/16 07:26:25;;;;;;;0.40;0.40;;;19.70;99.90;;;;;;4898101;29;20588;-61
2023/06/16 07:28:51;;;;;;;0.52;0.52;;;19.40;99.90;;;;;;4897936;29;20053;-61
2023/06/16 07:31:17;;;;;;;0.43;0.43;;;19.80;99.90;;;;;;4897334;29;20053;-61
2023/06/16 07:33:42;;;;;;;0.30;0.30;;;19.60;99.90;;;;;;4897806;29;20051;-61
2023/06/16 07:36:08;;;;;;;0.57;0.57;;;19.40;99.90;;;;;;4897900;29;20119;-61
2023/06/16 07:38:34;;;;;;;0.10;0.10;;;19.60;99.90;;;;;;4897855;29;20044;-61
2023/06/16 07:41:02;;;;;;;0.40;0.32;;;19.80;99.90;;;;;;4897848;29;20053;-61
2023/06/16 07:43:27;;;;;;;2.20;0.55;;;19.60;99.90;;;;;;4897686;29;20103;-61
2023/06/16 07:45:53;;;;;;;0.43;0.43;;;19.70;99.90;;;;;;4897689;29;20048;-61
2023/06/16 07:48:19;;;;;;;0.40;0.40;;;19.80;99.90;;;;;;4897423;29;20044;-61
2023/06/16 07:50:44;;;;;;;0.57;0.57;;;19.70;99.90;;;;;;4897320;29;20065;-60
2023/06/16 07:53:10;;;;;;;0.20;0.20;;;19.80;99.90;;;;;;4897621;29;20671;-61
2023/06/16 07:55:36;;;;;;;0.17;0.17;;;19.60;99.90;;;;;;4897699;29;20079;-61
2023/06/16 07:58:02;;;;;;;0.15;0.15;;;19.80;99.90;;;;;;4897455;29;20134;-61
2023/06/16 08:00:27;;;;;;;0.95;0.68;;;20.40;99.90;;;;;;4897527;29;20049;-60
2023/06/16 08:02:53;;;;;;;0.47;0.47;;;20.20;99.90;;;;;;4897425;29;20052;-61
2023/06/16 08:05:20;;;;;;;0.25;0.25;;;20.30;99.90;;;;;;4897711;29;20128;-62
2023/06/16 08:07:46;;;;;;;0.55;0.45;;;20.20;99.90;;;;;;4880988;29;20099;-61
2023/06/16 08:10:13;;;;;;;1.70;1.60;;;20.10;99.90;;;;;;4897268;29;20084;-61
2023/06/16 08:12:38;;;;;;;0.43;0.43;;;19.90;99.90;;;;;;4897177;29;20401;-61
2023/06/16 08:15:05;;;;;;;0.25;0.25;;;20.50;99.90;;;;;;4897073;29;20081;-61
2023/06/16 08:17:31;;;;;;;0.25;0.25;;;20.20;99.90;;;;;;4896975;29;20123;-61
2023/06/16 08:19:56;;;;;;;0.38;0.38;;;20.50;99.90;;;;;;4897211;29;20049;-61
2023/06/16 08:22:22;;;;;;;1.98;1.05;;;20.60;99.90;;;;;;4897153;29;20064;-61
2023/06/16 08:24:48;;;;;;;0.25;0.25;;;20.40;99.90;;;;;;4897017;29;20044;-61
2023/06/16 08:27:14;;;;;;;0.45;0.45;;;20.30;99.90;;;;;;4896999;29;20084;-61
2023/06/16 08:29:39;;;;;;;0.30;0.30;;;20.30;99.90;;;;;;4896772;29;20482;-60
2023/06/16 08:32:06;;;;;;;0.45;0.45;;;20.50;99.90;;;;;;4896731;29;20048;-61
2023/06/16 08:34:33;;;;;;;0.38;0.38;;;20.50;99.90;;;;;;4897013;29;20060;-61
2023/06/16 08:37:01;;;;;;;0.43;0.43;;;20.70;99.90;;;;;;4896811;29;20112;-60
2023/06/16 08:39:27;;;;;;;0.13;0.13;;;20.70;99.90;;;;;;4896816;29;20080;-60
2023/06/16 08:41:53;;;;;;;0.10;0.10;;;20.80;99.90;;;;;;4896732;29;20084;-60
2023/06/16 08:44:21;;;;;;;0.20;0.20;;;20.70;99.90;;;;;;4895881;29;20056;-61
2023/06/16 08:46:46;;;;;;;1.25;0.43;;;20.90;99.90;;;;;;4896568;29;20059;-61
2023/06/16 08:49:15;;;;;;;0.10;0.10;;;20.70;99.90;;;;;;4896615;29;20060;-61
2023/06/16 08:51:48;;;;;;;0.10;0.10;;;21.00;99.90;;;;;;4896508;29;20553;-61
2023/06/16 08:54:14;;;;;;;0.22;0.22;;;20.70;99.90;;;;;;4896650;29;20057;-60
2023/06/16 08:56:43;;;;;;;0.22;0.22;;;20.70;99.90;;;;;;4896527;29;20151;-61
2023/06/16 08:59:11;;;;;;;0.25;0.25;;;21.20;99.90;;;;;;4896390;29;20101;-61
2023/06/16 09:01:40;;;;;;;1.08;0.98;;;20.90;99.90;;;;;;4896678;29;20479;-61
2023/06/16 09:04:09;;;;;;;0.47;0.47;;;21.10;99.90;;;;;;4896533;29;20060;-61
2023/06/16 09:06:44;;;;;;;0.30;0.30;;;20.90;99.90;;;;;;4896548;29;20064;-61
2023/06/16 09:09:09;;;;;;;0.88;0.68;;;21.10;99.90;;;;;;4896370;29;20045;-61
2023/06/16 09:11:35;;;;;;;0.17;0.17;;;20.50;99.90;;;;;;4896231;29;20051;-61
2023/06/16 09:14:21;;;;;;;0.20;0.20;;;20.80;99.90;;;;;;4896517;29;20056;-61
2023/06/16 09:16:55;;;;;;;0.13;0.13;;;20.90;99.90;;;;;;4896220;29;20068;-60
2023/06/16 09:19:21;;;;;;;0.43;0.32;;;21.00;99.90;;;;;;4896372;29;20277;-60
2023/06/16 09:21:53;;;;;;;0.30;0.30;;;21.30;99.90;;;;;;4896204;29;20061;-61
2023/06/16 09:24:24;;;;;;;0.43;0.43;;;21.40;99.90;;;;;;4894182;29;20045;-61
2023/06/16 09:26:52;;;;;;;0.40;0.30;;;21.00;99.90;;;;;;4896141;29;20235;-61
2023/06/16 09:29:24;;;;;;;0.65;0.50;;;21.50;99.90;;;;;;4896065;29;20486;-61
2023/06/16 09:31:50;;;;;;;0.30;0.30;;;21.20;99.90;;;;;;4896307;29;20091;-61
2023/06/16 09:34:16;;;;;;;0.50;0.50;;;21.40;99.90;;;;;;4896278;29;20111;-61
2023/06/16 09:36:42;;;;;;;0.32;0.28;;;21.60;99.90;;;;;;4879536;29;20088;-61
2023/06/16 09:39:34;;;;;;;0.60;0.60;;;21.50;99.90;;;;;;4896318;29;20498;-61
2023/06/16 09:42:01;;;;;;;0.32;0.32;;;21.80;99.90;;;;;;4894179;29;20057;-60
2023/06/16 09:44:26;;;;;;;0.20;0.20;;;21.50;99.90;;;;;;4896082;29;20067;-60
2023/06/16 09:46:58;;;;;;;0.10;0.10;;;22.00;99.90;;;;;;4896111;29;20052;-61
2023/06/16 09:49:25;;;;;;;0.52;0.50;;;21.70;99.90;;;;;;4895838;29;20159;-59
2023/06/16 09:51:56;;;;;;;0.30;0.30;;;21.60;99.90;;;;;;4896176;29;20049;-60
2023/06/16 09:54:24;;;;;;;0.32;0.30;;;21.70;99.90;;;;;;4897145;29;20095;-61
2023/06/16 09:56:50;;;;;;;0.95;0.95;;;21.70;99.90;;;;;;4899805;29;20049;-61
2023/06/16 09:59:17;;;;;;;0.40;0.40;;;21.80;99.90;;;;;;4899899;29;20084;-61
2023/06/16 10:01:46;;;;;;;1.48;0.50;;;21.80;99.90;;;;;;4899599;29;20049;-61
2023/06/16 10:04:14;;;;;;;2.50;1.65;;;21.30;99.90;;;;;;4899696;29;20402;-61
2023/06/16 10:07:02;;;;;;;0.40;0.40;;;21.60;99.90;;;;;;4899599;29;20049;-62
2023/06/16 10:09:36;;;;;;;0.13;0.13;;;22.10;99.90;;;;;;4899462;29;20052;-61
2023/06/16 10:12:03;;;;;;;0.30;0.30;;;21.60;99.90;;;;;;4899331;29;20151;-61
2023/06/16 10:14:33;;;;;;;0.50;0.50;;;21.90;99.90;;;;;;4899453;29;20056;-61
2023/06/16 10:17:00;;;;;;;0.52;0.20;;;21.90;99.90;;;;;;4899490;29;20092;-61
2023/06/16 10:19:28;;;;;;;0.57;0.57;;;22.20;99.90;;;;;;4899347;29;20076;-61
2023/06/16 10:21:55;;;;;;;0.20;0.20;;;22.20;99.90;;;;;;4899252;29;20060;-61
2023/06/16 10:24:21;;;;;;;4.38;1.90;;;22.60;99.90;;;;;;4899066;29;20055;-61
2023/06/16 10:26:49;;;;;;;0.22;0.22;;;22.30;99.90;;;;;;4899092;29;20088;-60
2023/06/16 10:29:16;;;;;;;0.17;0.17;;;22.20;99.90;;;;;;4899146;29;20135;-61
2023/06/16 10:31:45;;;;;;;0.17;0.17;;;22.20;99.90;;;;;;4882399;29;20478;-61
2023/06/16 10:34:23;;;;;;;0.20;0.20;;;21.90;99.90;;;;;;4899015;29;20084;-62
2023/06/16 10:36:51;;;;;;;0.25;0.25;;;22.20;99.90;;;;;;4898872;29;20383;-60
2023/06/16 10:39:18;;;;;;;0.28;0.28;;;22.00;99.90;;;;;;4898722;29;20592;-61
2023/06/16 10:41:53;;;;;;;0.43;0.43;;;22.00;99.90;;;;;;4898943;29;20049;-62
2023/06/16 10:44:31;;;;;;;2.37;0.43;;;22.10;99.90;;;;;;4882293;29;20103;-62
2023/06/16 10:47:17;;;;;;;0.10;0.10;;;22.20;99.90;;;;;;4898788;29;20056;-61
2023/06/16 10:49:47;;;;;;;0.40;0.40;;;22.60;99.90;;;;;;4891513;29;20454;-61
2023/06/16 10:52:34;;;;;;;0.82;0.30;;;22.40;99.90;;;;;;4898792;29;20095;-61
2023/06/16 10:55:37;;;;;;;0.20;0.20;;;22.30;99.90;;;;;;4898717;29;20151;-61
2023/06/16 10:58:19;;;;;;;0.50;0.50;;;22.10;99.90;;;;;;4896994;29;20056;-62
2023/06/16 11:01:05;;;;;;;0.20;0.20;;;22.80;99.90;;;;;;4898597;29;20051;-61
2023/06/16 11:03:34;;;;;;;0.95;0.32;;;22.40;99.90;;;;;;4898474;29;20651;-62
2023/06/16 11:06:00;;;;;;;0.15;0.15;;;22.50;99.90;;;;;;4897493;29;20536;-61
2023/06/16 11:08:27;;;;;;;0.35;0.35;;;22.60;99.90;;;;;;4898221;29;20057;-61
2023/06/16 11:11:05;;;;;;;0.40;0.40;;;22.70;99.90;;;;;;4898448;29;20057;-61
2023/06/16 11:13:35;;;;;;;0.03;0.03;;;22.90;99.90;;;;;;4898355;29;20486;-61
2023/06/16 11:16:01;;;;;;;0.30;0.30;;;22.50;99.90;;;;;;4898161;29;20139;-62
2023/06/16 11:18:29;;;;;;;0.47;0.47;;;22.60;99.90;;;;;;4898181;29;20064;-62
2023/06/16 11:20:56;;;;;;;0.13;0.13;;;22.70;99.90;;;;;;4898010;29;20119;-62
2023/06/16 11:23:22;;;;;;;0.50;0.50;;;23.00;99.90;;;;;;4898198;29;20090;-61
2023/06/16 11:25:48;;;;;;;0.40;0.40;;;22.70;99.90;;;;;;4898149;29;20091;-61
2023/06/16 11:28:14;;;;;;;0.20;0.20;;;22.90;99.90;;;;;;4898004;29;20127;-62
2023/06/16 11:30:42;;;;;;;0.10;0.10;;;22.90;99.90;;;;;;4897876;29;20093;-61
2023/06/16 11:33:08;;;;;;;0.85;0.47;;;23.10;99.90;;;;;;4897744;29;20067;-62
2023/06/16 11:35:34;;;;;;;0.20;0.20;;;23.10;99.90;;;;;;4897695;29;20052;-61
2023/06/16 11:38:00;;;;;;;0.10;0.10;;;23.20;99.90;;;;;;4897752;29;20055;-62
2023/06/16 11:40:27;;;;;;;0.10;0.10;;;23.20;99.90;;;;;;4897911;29;20131;-61
2023/06/16 11:42:55;;;;;;;0.30;0.30;;;23.40;99.90;;;;;;4897745;29;20056;-61
2023/06/16 11:45:21;;;;;;;0.47;0.35;;;23.30;99.90;;;;;;4897660;29;20064;-62
2023/06/16 11:47:47;;;;;;;0.10;0.10;;;23.40;99.90;;;;;;4897527;29;20061;-62
2023/06/16 11:50:15;;;;;;;0.10;0.10;;;23.70;99.90;;;;;;4895782;29;20064;-62
2023/06/16 11:52:41;;;;;;;0.15;0.15;;;23.60;99.90;;;;;;4880859;29;20056;-61
2023/06/16 11:55:07;;;;;;;0.38;0.38;;;22.90;99.90;;;;;;4880453;29;20135;-63
2023/06/16 11:57:37;;;;;;;0.20;0.20;;;23.10;99.90;;;;;;4897293;29;20176;-61
2023/06/16 12:00:04;;;;;;;0.28;0.28;;;23.20;99.90;;;;;;4897237;29;20048;-63
2023/06/16 12:02:30;;;;;;;0.17;0.17;;;22.60;99.90;;;;;;4896988;29;20064;-61
2023/06/16 12:04:57;;;;;;;0.32;0.32;;;22.80;99.90;;;;;;4896911;29;20485;-61
2023/06/16 12:07:23;;;;;;;2.45;0.68;;;22.50;99.90;;;;;;4897394;29;20048;-62
2023/06/16 12:09:55;;;;;;;0.50;0.50;;;22.40;99.90;;;;;;4897030;29;20565;-61
2023/06/16 12:12:21;;;;;;;0.20;0.20;;;22.20;99.90;;;;;;4897183;29;20060;-61
2023/06/16 12:14:47;;;;;;;1.02;1.00;;;22.60;99.90;;;;;;4897104;29;20065;-62
2023/06/16 12:17:12;;;;;;;0.20;0.20;;;22.40;99.90;;;;;;4896645;29;20048;-62
2023/06/16 12:19:38;;;;;;;0.20;0.20;;;22.50;99.90;;;;;;4897223;29;20104;-62
2023/06/16 12:22:05;;;;;;;1.15;0.43;;;22.40;99.90;;;;;;4897088;29;20052;-61
2023/06/16 12:24:31;;;;;;;0.10;0.10;;;22.30;99.90;;;;;;4896867;29;20095;-62
2023/06/16 12:26:57;;;;;;;1.45;0.40;;;22.20;99.90;;;;;;4896701;29;20085;-61
2023/06/16 12:29:27;;;;;;;0.50;0.50;;;22.60;99.90;;;;;;4896712;29;20037;-61
2023/06/16 12:31:56;;;;;;;0.10;0.10;;;22.60;99.90;;;;;;4896578;29;20052;-62
2023/06/16 12:34:26;;;;;;;0.43;0.43;;;22.80;99.90;;;;;;4896550;29;20131;-61
2023/06/16 12:36:53;;;;;;;5.50;1.45;;;22.40;99.90;;;;;;4896450;29;20056;-62
2023/06/16 12:39:20;;;;;;;0.55;0.55;;;22.90;99.90;;;;;;4879739;29;20040;-62
2023/06/16 12:41:59;;;;;;;1.27;0.57;;;22.70;99.90;;;;;;4897669;29;20151;-62
2023/06/16 12:44:59;;;;;;;0.20;0.20;;;22.50;99.90;;;;;;4897203;29;20057;-60
2023/06/16 12:47:26;;;;;;;0.50;0.50;;;23.10;99.90;;;;;;4909883;29;20127;-61
2023/06/16 12:49:54;;;;;;;0.50;0.50;;;23.10;99.90;;;;;;4895297;29;20116;-61
2023/06/16 12:52:20;;;;;;;0.43;0.35;;;23.10;99.90;;;;;;4896076;29;20057;-59
2023/06/16 12:54:46;;;;;;;0.22;0.22;;;22.80;99.90;;;;;;4895214;29;20057;-60
2023/06/16 12:57:12;;;;;;;0.20;0.20;;;23.00;99.90;;;;;;4895882;29;20048;-60
2023/06/16 12:59:38;;;;;;;0.75;0.40;;;22.90;99.90;;;;;;4895855;29;20561;-60